• Join FlightAware (Why Join?)
  • Login
  • US Flag 
08:44AM EDT


 

Airport Tracker/Info


-or-


 

Live Flight TrackerFlight Track Log ✈ ASQ4976 ✈ 05-May-2013 ✈ KALB - KATL

Flight Track Log - Related Links

Times and Time Zones

All times are in EDT time to prevent confusion due to time zone crossing. See the ASQ4976 flight status page for this flight to view local times or setup timezone preferences in your user account.

Time Position Orientation Groundspeed Altitude Reporting Facility
EDT Latitude Longitude Course Direction KTS MPH feet Rate Location/Type
01:07PM 42.6831 -73.8747 219° Southwest 237 273 3,700  Level Boston Center
01:08PM 42.7011 -73.9375 291° West 261 300 5,200 2,340 Climbing Boston Center
01:10PM 42.7817 -74.1317 300° West 263 303 10,900 2,460 Climbing Boston Center
01:11PM 42.7858 -74.2619 273° West 306 352 13,100 1,800 Climbing Boston Center
01:12PM 42.7450 -74.3456 236° Southwest 306 352 14,500 1,800 Climbing Boston Center
01:13PM 42.6761 -74.4792 235° Southwest 351 404 16,700 1,680 Climbing Boston Center
01:14PM 42.6264 -74.5650 232° Southwest 368 423 17,900 1,380 Climbing Boston Center
01:15PM 42.5142 -74.5497 174° South 341 392 19,500 1,620 Climbing Boston Center
01:16PM 42.4517 -74.4322 126° Southeast 308 354 21,200 1,500 Climbing Boston Center
01:17PM 42.3972 -74.3322 126° Southeast 334 384 22,500 1,260 Climbing Boston Center
01:18PM 42.3303 -74.2122 127° Southeast 365 420 23,800 1,140 Climbing Boston Center
01:19PM 42.2633 -74.0897 126° Southeast 394 453 24,800 900 Climbing Boston Center
01:20PM 42.1494 -74.0392 162° South 397 457 25,800 1,080 Climbing Boston Center
01:21PM 41.9950 -74.0464 182° South 433 498 27,300 840 Climbing Boston Center
01:24PM 41.6819 -74.0653 183° South 472 543 28,700 660 Climbing New York Center
01:25PM 41.5486 -74.0697 181° South 488 562 29,600 1,020 Climbing New York Center
01:26PM 41.4236 -74.1464 205° Southwest 480 552 30,800 1,080 Climbing New York Center
01:27PM 41.3244 -74.2686 223° Southwest 477 549 31,900 1,080 Climbing New York Center
01:28PM 41.2272 -74.3767 220° Southwest 495 570 33,000 1,020 Climbing New York Center
01:29PM 41.1300 -74.4925 222° Southwest 495 570 34,000 480 Climbing New York Center
01:30PM 41.0325 -74.6139 223° Southwest 489 563 34,000  Level New York Center
01:31PM 40.9306 -74.7342 222° Southwest 483 556 34,000  Level New York Center
01:32PM 40.8350 -74.8439 221° Southwest 483 556 34,000  Level New York Center
01:33PM 40.7417 -74.9533 222° Southwest 466 536 34,000  Level New York Center
01:34PM 40.6503 -75.0628 222° Southwest 455 524 34,000  Level New York Center
01:35PM 40.5608 -75.1719 223° Southwest 449 517 34,000  Level New York Center
01:36PM 40.4650 -75.2831 221° Southwest 449 517 34,000  Level New York Center
01:37PM 40.3692 -75.3911 221° Southwest 454 522 34,000  Level New York Center
01:38PM 40.2731 -75.5017 221° Southwest 459 528 34,000  Level New York Center
01:39PM 40.1886 -75.6292 229° Southwest 465 535 34,000  Level New York Center
01:40PM 40.1144 -75.7597 233° Southwest 465 535 34,000  Level New York Center
01:41PM 40.0339 -75.8842 230° Southwest 460 529 34,000  Level New York Center
01:42PM 39.9575 -76.0111 232° Southwest 455 524 34,000  Level New York Center
01:44PM 39.8056 -76.2478 230° Southwest 452 520 34,000  Level Washington Center
01:45PM 39.7278 -76.3686 230° Southwest 446 513 34,000  Level Washington Center
01:46PM 39.6456 -76.4942 230° Southwest 434 499 34,000  Level Washington Center
01:47PM 39.5550 -76.6278 229° Southwest 447 514 34,000  Level Washington Center
01:48PM 39.4767 -76.7531 231° Southwest 452 520 34,000  Level Washington Center
01:49PM 39.3942 -76.8781 230° Southwest 464 534 34,000  Level Washington Center
01:50PM 39.3136 -77.0025 230° Southwest 464 534 34,000  Level Washington Center
01:51PM 39.2328 -77.1297 231° Southwest 464 534 34,000  Level Washington Center
01:52PM 39.1519 -77.2511 229° Southwest 463 533 34,000  Level Washington Center
01:53PM 39.0689 -77.3775 230° Southwest 463 533 34,000  Level Washington Center
01:54PM 38.9900 -77.4983 230° Southwest 463 533 34,000  Level Washington Center
01:55PM 38.9067 -77.6244 230° Southwest 463 533 34,000  Level Washington Center
01:56PM 38.8339 -77.7342 230° Southwest 463 533 34,000  Level Washington Center
01:57PM 38.7503 -77.8597 230° Southwest 463 533 34,000  Level Washington Center
01:58PM 38.6731 -77.9769 230° Southwest 458 527 34,000  Level Washington Center
01:59PM 38.5933 -78.0939 229° Southwest 447 514 34,000  Level Washington Center
02:00PM 38.5158 -78.2108 230° Southwest 442 509 34,000  Level Washington Center
02:01PM 38.4403 -78.3247 230° Southwest 442 509 34,000  Level Washington Center
02:02PM 38.3628 -78.4383 229° Southwest 434 499 34,000  Level Washington Center
02:03PM 38.2869 -78.5492 229° Southwest 428 493 34,000  Level Washington Center
02:04PM 38.2089 -78.6678 230° Southwest 418 481 34,000  Level Washington Center
02:05PM 38.1331 -78.7781 229° Southwest 418 481 34,000  Level Washington Center
02:06PM 38.0614 -78.8831 229° Southwest 418 481 34,000  Level Washington Center
02:07PM 37.9919 -78.9803 228° Southwest 418 481 34,000  Level Washington Center
02:08PM 37.9200 -79.0850 229° Southwest 413 475 34,000  Level Washington Center
02:09PM 37.8439 -79.1944 229° Southwest 408 470 34,000  Level Washington Center
02:10PM 37.7592 -79.3086 227° Southwest 408 470 34,000  Level Washington Center
02:11PM 37.6894 -79.3997 226° Southwest 408 470 34,000  Level Washington Center
02:12PM 37.6042 -79.5186 228° Southwest 408 470 34,000  Level Washington Center
02:13PM 37.5364 -79.6119 228° Southwest 413 475 34,000  Level Washington Center
02:14PM 37.4511 -79.7278 227° Southwest 413 475 34,000  Level Washington Center
02:15PM 37.3700 -79.8436 229° Southwest 426 490 34,000  Level Washington Center
02:16PM 37.2911 -79.9464 226° Southwest 426 490 34,000  Level Washington Center
02:18PM 37.1194 -80.1761 227° Southwest 432 497 34,000  Level Atlanta Center
02:19PM 37.0394 -80.2842 227° Southwest 432 497 34,000  Level Atlanta Center
02:20PM 36.9572 -80.3919 226° Southwest 432 497 34,000  Level Atlanta Center
02:21PM 36.8850 -80.4911 228° Southwest 432 497 34,000  Level Atlanta Center
02:22PM 36.8006 -80.6014 226° Southwest 432 497 34,000  Level Atlanta Center
02:23PM 36.7222 -80.7083 228° Southwest 432 497 34,000  Level Atlanta Center
02:24PM 36.6397 -80.8203 227° Southwest 437 503 34,000  Level Atlanta Center
02:25PM 36.5569 -80.9269 226° Southwest 432 497 34,000  Level Atlanta Center
02:26PM 36.4764 -81.0386 228° Southwest 432 497 34,000  Level Atlanta Center
02:27PM 36.3914 -81.1475 226° Southwest 438 504 34,000  Level Atlanta Center
02:28PM 36.3003 -81.2694 227° Southwest 432 497 34,000  Level Atlanta Center
02:29PM 36.2172 -81.3803 227° Southwest 432 497 34,000  Level Atlanta Center
02:30PM 36.1339 -81.4833 225° Southwest 432 497 34,000  Level Atlanta Center
02:31PM 36.0467 -81.5989 227° Southwest 440 506 34,000  Level Atlanta Center
02:32PM 35.9631 -81.7042 226° Southwest 445 512 34,000  Level Atlanta Center
02:33PM 35.8775 -81.8169 227° Southwest 440 506 34,000  Level Atlanta Center
02:34PM 35.7961 -81.9239 227° Southwest 430 495 34,000  Level Atlanta Center
02:35PM 35.7103 -82.0311 225° Southwest 436 502 34,000  Level Atlanta Center
02:36PM 35.6242 -82.1406 226° Southwest 436 502 34,000  Level Atlanta Center
02:37PM 35.5383 -82.2497 226° Southwest 436 502 34,000  Level Atlanta Center
02:38PM 35.4564 -82.3533 226° Southwest 431 496 34,000 -60 Level Atlanta Center
02:39PM 35.3681 -82.4597 224° Southwest 438 504 33,900 -300 Descending Atlanta Center
02:40PM 35.2817 -82.5556 222° Southwest 426 490 33,400 -780 Descending Atlanta Center
02:41PM 35.1950 -82.6433 220° Southwest 420 483 32,400 300 Descending Atlanta Center
02:42PM 35.1106 -82.7389 223° Southwest 415 478 34,000 -960 Climbing Atlanta Center
02:43PM 35.0258 -82.8314 222° Southwest 407 468 30,500  Descending Atlanta Center
02:44PM 34.9411 -82.9239 222° Southwest 412 474 34,000 -1,020 Climbing Atlanta Center
02:45PM 34.8647 -83.0033 220° Southwest 412 474 28,500 -3,300 Descending Atlanta Center
02:46PM 34.7800 -83.0956 222° Southwest 412 474 27,500 -1,020 Descending Atlanta Center
02:47PM 34.6992 -83.1847 222° Southwest 405 466 26,500 -1,080 Descending Atlanta Center
02:48PM 34.6183 -83.2739 222° Southwest 399 459 25,400 -1,620 Descending Atlanta Center
02:49PM 34.5353 -83.3631 222° Southwest 399 459 23,300 -2,100 Descending Atlanta Center
02:50PM 34.4503 -83.4544 222° Southwest 392 451 21,300 -2,040 Descending Atlanta Center
02:51PM 34.3756 -83.5378 223° Southwest 383 441 19,300 -2,040 Descending Atlanta Center
02:52PM 34.2964 -83.6189 220° Southwest 371 427 17,300 -2,400 Descending Atlanta Center
02:53PM 34.2236 -83.6997 223° Southwest 371 427 14,600 -2,640 Descending Atlanta Center
02:54PM 34.1489 -83.7778 221° Southwest 360 414 12,100 -1,320 Descending Atlanta Center
02:55PM 34.0883 -83.8431 222° Southwest 324 373 12,000 -180 Descending Atlanta Center
02:55PM 34.0500 -83.8833 221° Southwest 262 302 11,800 -840 Descending Atlanta TRACON
02:56PM 34.0000 -83.9333 220° Southwest 256 295 10,600 -1,380 Descending Atlanta TRACON
02:57PM 33.9333 -84.0000 220° Southwest 271 312 9,100 -840 Descending Atlanta TRACON
02:58PM 33.8833 -84.0667 228° Southwest 273 314 9,000 -180 Descending Atlanta TRACON
02:59PM 33.8714 -84.0739 207° Southwest 268 308 8,900 -720 Descending Atlanta Center
03:00PM 33.8089 -84.0864 189° South 230 265 8,100 -1,260 Descending Atlanta Center
03:01PM 33.7461 -84.0839 178° South 230 265 6,400 -1,500 Descending Atlanta Center
03:02PM 33.6667 -84.1167 199° South 185 213 4,200 -900 Descending Atlanta TRACON
03:03PM 33.6500 -84.1833 253° West 194 223 4,000 -180 Descending Atlanta TRACON
03:04PM 33.6500 -84.2333 270° West 191 220 3,900 -600 Descending Atlanta TRACON
03:05PM 33.6500 -84.3000 270° West 183 211 2,800 -960 Descending Atlanta TRACON
03:06PM 33.6500 -84.3500 270° West 160 184 2,000 -900 Descending Atlanta TRACON
03:07PM 33.6500 -84.4000 270° West 143 165 1,200 -840 Descending Atlanta TRACON
03:09PM 33.6367 -84.4279 270° West  Level Estimated
03:16PM 33.6367 -84.4279 64° Northeast  Level Estimated
03:17PM 33.6367 -84.4279 64° Northeast  Level Estimated